Terminal Aerodrome Forecast
Issued by NWS

Home | Current Version | Previous Version | Text Only | Print | Product List | Glossary On
Versions: 1 2 3 4 5 6 7 8 9 10 11 12 13 14 15 16
000
FTUS43 KPAH 212344
TAFCGI
TAF
KCGI 212344Z 2200/2224 02011KT 6SM -SHRA BKN015
     FM220100 03012KT 5SM -SHRA BR SCT005 OVC012
      TEMPO 2201/2205 SCT012 OVC030
     FM220600 04013KT 4SM -RA BR BKN015
     FM221000 03015G22KT 6SM -SHRA OVC008=

USA.gov is the U.S. government's official web portal to all federal, state and local government web resources and services.